Time;durP1;ratioP1;P1;durP2;ratioP2;P2;SDS_P1;SDS_P2;PMS_P1;PMS_P2;Temp;Humidity;BMP_temperature;BMP_pressure;BME280_temperature;BME280_humidity;BME280_pressure;Samples;Min_cycle;Max_cycle;Signal;HPM_P1;HPM_P2
2021/07/10 00:00:15;;;;;;;13.10;8.57;;;20.20;99.90;;;;;;5029103;28;20119;-72
2021/07/10 00:02:42;;;;;;;13.38;9.35;;;20.10;99.90;;;;;;5046234;28;20084;-71
2021/07/10 00:05:13;;;;;;;14.32;10.07;;;20.10;99.90;;;;;;5031706;28;20026;-74
2021/07/10 00:07:39;;;;;;;11.25;9.50;;;20.10;99.90;;;;;;5029830;28;20013;-72
2021/07/10 00:10:12;;;;;;;14.45;10.75;;;20.00;99.90;;;;;;5033350;28;20495;-71
2021/07/10 00:12:39;;;;;;;13.23;10.68;;;20.10;99.90;;;;;;5031064;28;20040;-71
2021/07/10 00:15:09;;;;;;;11.95;9.38;;;20.10;99.90;;;;;;5028206;28;20044;-72
2021/07/10 00:17:35;;;;;;;19.65;10.40;;;20.00;99.90;;;;;;5028350;28;20025;-71
2021/07/10 00:20:00;;;;;;;17.20;12.43;;;20.10;99.90;;;;;;5028959;28;20026;-72
2021/07/10 00:22:26;;;;;;;26.63;14.07;;;20.10;99.90;;;;;;5032720;28;20024;-71
2021/07/10 00:24:52;;;;;;;15.23;12.18;;;20.10;99.90;;;;;;5031532;28;20025;-72
2021/07/10 00:27:18;;;;;;;18.05;11.30;;;20.10;99.90;;;;;;5027331;28;20025;-71
2021/07/10 00:29:43;;;;;;;14.27;9.38;;;20.10;99.90;;;;;;5028598;28;20286;-71
2021/07/10 00:32:09;;;;;;;13.25;9.38;;;20.10;99.90;;;;;;5024758;28;20054;-71
2021/07/10 00:34:34;;;;;;;15.15;10.23;;;20.20;99.90;;;;;;5048262;28;20124;-72
2021/07/10 00:37:00;;;;;;;12.40;10.15;;;20.10;99.90;;;;;;5032438;28;20079;-71
2021/07/10 00:39:26;;;;;;;13.63;9.30;;;20.10;99.90;;;;;;5026671;28;20033;-71
2021/07/10 00:41:51;;;;;;;11.60;9.40;;;20.10;99.90;;;;;;5034389;28;20033;-71
2021/07/10 00:44:17;;;;;;;12.27;9.38;;;20.10;99.90;;;;;;5028772;28;20109;-71
2021/07/10 00:46:43;;;;;;;16.05;10.07;;;20.10;99.90;;;;;;5034417;28;20040;-71
2021/07/10 00:49:08;;;;;;;14.07;9.05;;;20.00;99.90;;;;;;5031917;28;20100;-72
2021/07/10 00:51:34;;;;;;;13.23;9.65;;;20.00;99.90;;;;;;5030557;28;20032;-71
2021/07/10 00:54:00;;;;;;;12.30;9.73;;;20.10;99.90;;;;;;5032016;28;20022;-71
2021/07/10 00:56:26;;;;;;;10.45;9.35;;;20.10;99.90;;;;;;5029936;28;20496;-71
2021/07/10 00:58:53;;;;;;;11.63;10.05;;;20.10;99.90;;;;;;5026397;28;20033;-71
2021/07/10 01:01:19;;;;;;;13.73;10.27;;;20.00;99.90;;;;;;5029590;28;20022;-71
2021/07/10 01:03:45;;;;;;;15.65;11.43;;;20.00;99.90;;;;;;5031273;28;20036;-71
2021/07/10 01:06:14;;;;;;;16.98;12.45;;;20.00;99.90;;;;;;5030592;28;20040;-72
2021/07/10 01:08:41;;;;;;;18.17;12.73;;;20.00;99.90;;;;;;5030884;28;20061;-71
2021/07/10 01:11:08;;;;;;;17.90;12.65;;;19.90;99.90;;;;;;5031383;28;20021;-71
2021/07/10 01:13:34;;;;;;;17.98;13.52;;;19.90;99.90;;;;;;5027463;28;20083;-70
2021/07/10 01:16:00;;;;;;;21.98;14.57;;;19.90;99.90;;;;;;5030112;28;20025;-76
2021/07/10 01:18:26;;;;;;;22.02;15.88;;;19.90;99.90;;;;;;5029969;28;20030;-75
2021/07/10 01:20:53;;;;;;;21.08;16.52;;;19.90;99.90;;;;;;5029920;28;20025;-76
2021/07/10 01:23:20;;;;;;;19.48;15.48;;;19.80;99.90;;;;;;5026201;28;20025;-75
2021/07/10 01:25:46;;;;;;;19.13;15.23;;;19.80;99.90;;;;;;5029672;28;20466;-76
2021/07/10 01:28:16;;;;;;;24.45;17.08;;;19.80;99.90;;;;;;5029899;28;20635;-76
2021/07/10 01:30:43;;;;;;;21.95;16.52;;;19.80;99.90;;;;;;5030738;28;20009;-77
2021/07/10 01:33:10;;;;;;;23.90;16.98;;;19.70;99.90;;;;;;5031416;28;20033;-72
2021/07/10 01:35:36;;;;;;;22.70;18.40;;;19.70;99.90;;;;;;5031313;28;20029;-72
2021/07/10 01:38:05;;;;;;;25.48;16.30;;;19.70;99.90;;;;;;5025834;28;20026;-77
2021/07/10 01:40:31;;;;;;;23.17;16.27;;;19.60;99.90;;;;;;5027908;28;20030;-75
2021/07/10 01:42:57;;;;;;;26.27;17.17;;;19.60;99.90;;;;;;5030133;28;20022;-76
2021/07/10 01:45:23;;;;;;;22.55;17.40;;;19.60;99.90;;;;;;5030925;28;20037;-76
2021/07/10 01:47:50;;;;;;;20.80;16.17;;;19.60;99.90;;;;;;5025647;28;20131;-74
2021/07/10 01:50:16;;;;;;;22.33;17.30;;;19.50;99.90;;;;;;5029564;28;20036;-76
2021/07/10 01:52:43;;;;;;;22.23;16.92;;;19.50;99.90;;;;;;5030757;28;20014;-76
2021/07/10 01:55:11;;;;;;;22.40;16.60;;;19.50;99.90;;;;;;5033773;28;20061;-76
2021/07/10 01:57:38;;;;;;;22.30;17.23;;;19.50;99.90;;;;;;5026600;28;20095;-76
2021/07/10 02:00:18;;;;;;;24.60;17.90;;;19.50;99.90;;;;;;5028396;28;20032;-74
2021/07/10 02:02:44;;;;;;;25.80;19.58;;;19.40;99.90;;;;;;5026439;28;20065;-71
2021/07/10 02:05:11;;;;;;;22.90;18.13;;;19.40;99.90;;;;;;5026177;28;20477;-71
2021/07/10 02:07:38;;;;;;;23.20;19.00;;;19.40;99.90;;;;;;5028228;28;20033;-76
2021/07/10 02:10:09;;;;;;;25.60;19.75;;;19.40;99.90;;;;;;5029405;28;20032;-75
2021/07/10 02:12:35;;;;;;;25.85;20.08;;;19.40;99.90;;;;;;5023703;28;20028;-76
2021/07/10 02:15:01;;;;;;;30.20;20.75;;;19.40;99.90;;;;;;5023347;28;20021;-74
2021/07/10 02:17:27;;;;;;;26.55;18.92;;;19.30;99.90;;;;;;5030486;28;20025;-75
2021/07/10 02:19:52;;;;;;;28.95;20.48;;;19.30;99.90;;;;;;5027403;28;20231;-76
2021/07/10 02:22:18;;;;;;;29.48;20.67;;;19.30;99.90;;;;;;5024870;28;20025;-75
2021/07/10 02:24:44;;;;;;;29.40;21.63;;;19.30;99.90;;;;;;5026558;28;20027;-76
2021/07/10 02:27:09;;;;;;;27.95;20.65;;;19.30;99.90;;;;;;5030660;28;20492;-76
2021/07/10 02:29:35;;;;;;;33.17;20.83;;;19.30;99.90;;;;;;5024959;28;20438;-76
2021/07/10 02:32:01;;;;;;;28.30;21.67;;;19.30;99.90;;;;;;5027466;28;20025;-76
2021/07/10 02:34:26;;;;;;;32.67;22.48;;;19.20;99.90;;;;;;5027337;28;20025;-76
2021/07/10 02:36:52;;;;;;;29.77;21.48;;;19.20;99.90;;;;;;5030832;28;20036;-76
2021/07/10 02:39:18;;;;;;;32.10;22.58;;;19.20;99.90;;;;;;5031243;28;20033;-76
2021/07/10 02:41:44;;;;;;;28.80;22.98;;;19.20;99.90;;;;;;5030795;28;20030;-75
2021/07/10 02:44:09;;;;;;;34.83;24.35;;;19.20;99.90;;;;;;5027737;28;20025;-76
2021/07/10 02:46:35;;;;;;;31.63;22.77;;;19.20;99.90;;;;;;5030789;28;20036;-75
2021/07/10 02:49:01;;;;;;;30.50;22.88;;;19.20;99.90;;;;;;5030424;28;20105;-76
2021/07/10 02:51:26;;;;;;;31.83;22.67;;;19.20;99.90;;;;;;5030909;28;20032;-76
2021/07/10 02:53:56;;;;;;;30.50;22.70;;;19.10;99.90;;;;;;5027441;28;20474;-75
2021/07/10 02:56:26;;;;;;;31.98;20.63;;;19.10;99.90;;;;;;5029858;28;20034;-76
2021/07/10 02:58:52;;;;;;;29.83;21.30;;;19.10;99.90;;;;;;5033224;28;20032;-77
2021/07/10 03:01:19;;;;;;;27.42;20.90;;;19.10;99.90;;;;;;5031213;28;20091;-76
2021/07/10 03:03:45;;;;;;;26.52;19.73;;;19.00;99.90;;;;;;5029054;28;20057;-76
2021/07/10 03:06:12;;;;;;;25.70;20.30;;;19.00;99.90;;;;;;5026649;28;20029;-76
2021/07/10 03:08:39;;;;;;;28.55;20.48;;;19.00;99.90;;;;;;5032471;28;20024;-73
2021/07/10 03:11:05;;;;;;;30.08;19.73;;;19.00;99.90;;;;;;5030678;28;20029;-76
2021/07/10 03:13:31;;;;;;;28.17;20.67;;;19.00;99.90;;;;;;5032723;28;20022;-76
2021/07/10 03:15:57;;;;;;;28.95;20.48;;;19.00;99.90;;;;;;5030626;28;20021;-76
2021/07/10 03:18:22;;;;;;;30.88;21.45;;;19.00;99.90;;;;;;5027388;28;20021;-75
2021/07/10 03:20:48;;;;;;;33.05;22.45;;;18.90;99.90;;;;;;5028970;28;20032;-76
2021/07/10 03:23:14;;;;;;;32.75;24.27;;;18.90;99.90;;;;;;5032575;28;20025;-76
2021/07/10 03:25:41;;;;;;;34.03;25.17;;;18.90;99.90;;;;;;5029116;28;20024;-76
2021/07/10 03:28:07;;;;;;;33.25;21.52;;;18.90;99.90;;;;;;5034679;28;20014;-76
2021/07/10 03:30:33;;;;;;;31.60;23.42;;;18.80;99.90;;;;;;5027442;28;20025;-75
2021/07/10 03:32:59;;;;;;;31.30;20.75;;;18.80;99.90;;;;;;5030312;28;20116;-76
2021/07/10 03:35:25;;;;;;;33.72;21.92;;;18.80;99.90;;;;;;5032817;28;20022;-76
2021/07/10 03:37:52;;;;;;;29.35;21.65;;;18.70;99.90;;;;;;5034054;28;20036;-76
2021/07/10 03:40:20;;;;;;;32.80;24.05;;;18.80;99.90;;;;;;5032845;28;20029;-76
2021/07/10 03:42:46;;;;;;;34.60;23.80;;;18.70;99.90;;;;;;5035535;28;20377;-75
2021/07/10 03:45:13;;;;;;;33.47;24.17;;;18.70;99.90;;;;;;5025930;28;20128;-76
2021/07/10 03:47:39;;;;;;;32.25;23.63;;;18.60;99.90;;;;;;5032694;28;20493;-75
2021/07/10 03:50:07;;;;;;;30.95;21.35;;;18.60;99.90;;;;;;5037116;28;20033;-74
2021/07/10 03:52:32;;;;;;;30.27;21.25;;;18.60;99.90;;;;;;5028758;28;20033;-75
2021/07/10 03:54:59;;;;;;;28.45;22.60;;;18.50;99.90;;;;;;5034154;28;20381;-75
2021/07/10 03:57:25;;;;;;;31.90;23.67;;;18.50;99.90;;;;;;5034729;28;20033;-75
2021/07/10 03:59:50;;;;;;;31.23;22.08;;;18.60;99.90;;;;;;5035799;28;20039;-76
2021/07/10 04:02:16;;;;;;;32.35;22.58;;;18.60;99.90;;;;;;5035036;28;20043;-75
2021/07/10 04:04:41;;;;;;;29.95;21.35;;;18.50;99.90;;;;;;5030760;28;20021;-75
2021/07/10 04:07:07;;;;;;;31.38;23.65;;;18.50;99.90;;;;;;5033836;28;20421;-75
2021/07/10 04:09:33;;;;;;;32.15;21.40;;;18.60;99.90;;;;;;5033154;28;20025;-75
2021/07/10 04:11:58;;;;;;;32.08;21.83;;;18.60;99.90;;;;;;5034685;28;20087;-75
2021/07/10 04:14:25;;;;;;;32.35;22.67;;;18.50;99.90;;;;;;5032724;28;20543;-75
2021/07/10 04:16:51;;;;;;;34.63;24.75;;;18.50;99.90;;;;;;5032723;28;20022;-75
2021/07/10 04:19:17;;;;;;;31.00;22.63;;;18.50;99.90;;;;;;5033927;28;20448;-75
2021/07/10 04:21:43;;;;;;;34.60;25.55;;;18.50;99.90;;;;;;5037109;28;20025;-71
2021/07/10 04:24:08;;;;;;;33.63;23.15;;;18.50;99.90;;;;;;5033414;28;20029;-75
2021/07/10 04:26:34;;;;;;;29.95;22.23;;;18.50;99.90;;;;;;5034414;28;20037;-75
2021/07/10 04:28:59;;;;;;;30.48;21.50;;;18.40;99.90;;;;;;5031804;28;20029;-75
2021/07/10 04:31:25;;;;;;;30.50;22.10;;;18.50;99.90;;;;;;5035869;28;20453;-74
2021/07/10 04:33:51;;;;;;;30.98;21.73;;;18.50;99.90;;;;;;5039914;28;20386;-75
2021/07/10 04:36:16;;;;;;;31.02;22.70;;;18.50;99.90;;;;;;5029677;28;20033;-74
2021/07/10 04:38:42;;;;;;;27.25;19.88;;;18.50;99.90;;;;;;5030287;28;20029;-75
2021/07/10 04:41:08;;;;;;;23.77;18.17;;;18.60;99.90;;;;;;5034587;28;20037;-75
2021/07/10 04:43:36;;;;;;;26.85;20.65;;;18.60;99.90;;;;;;5031856;28;20052;-75
2021/07/10 04:46:02;;;;;;;28.30;19.67;;;18.60;99.90;;;;;;5030360;28;20049;-75
2021/07/10 04:48:28;;;;;;;27.45;20.00;;;18.60;99.90;;;;;;5031738;28;20473;-75
2021/07/10 04:50:54;;;;;;;28.88;20.77;;;18.60;99.90;;;;;;5029301;28;20025;-75
2021/07/10 04:53:20;;;;;;;27.95;20.38;;;18.70;99.90;;;;;;5038147;28;20489;-75
2021/07/10 04:55:46;;;;;;;25.65;19.13;;;18.70;99.90;;;;;;5033759;28;20108;-75
2021/07/10 04:58:11;;;;;;;25.67;18.02;;;18.80;99.90;;;;;;5031897;28;20101;-74
2021/07/10 05:00:37;;;;;;;24.00;18.38;;;18.90;99.90;;;;;;5028038;28;20044;-76
2021/07/10 05:03:03;;;;;;;21.42;17.10;;;18.90;99.90;;;;;;5033680;28;20029;-76
2021/07/10 05:05:29;;;;;;;23.25;18.23;;;19.00;99.90;;;;;;5033383;28;20379;-75
2021/07/10 05:07:55;;;;;;;22.73;17.38;;;19.00;99.90;;;;;;5026063;28;20033;-75
2021/07/10 05:10:21;;;;;;;21.90;17.98;;;19.10;99.90;;;;;;5033499;28;20032;-75
2021/07/10 05:12:47;;;;;;;26.45;19.90;;;19.10;99.90;;;;;;5027320;28;20026;-75
2021/07/10 05:15:13;;;;;;;20.88;16.88;;;19.10;99.90;;;;;;5033636;28;20029;-76
2021/07/10 05:17:39;;;;;;;21.55;16.75;;;19.10;99.90;;;;;;5034065;28;20070;-75
2021/07/10 05:20:06;;;;;;;21.60;17.27;;;19.20;99.90;;;;;;5031605;28;20029;-75
2021/07/10 05:22:32;;;;;;;24.77;17.92;;;19.30;99.90;;;;;;5021988;28;20026;-74
2021/07/10 05:24:57;;;;;;;23.30;17.95;;;19.30;99.90;;;;;;5030944;28;20033;-75
2021/07/10 05:27:23;;;;;;;21.98;17.10;;;19.40;99.90;;;;;;5031519;28;20032;-75
2021/07/10 05:29:49;;;;;;;29.60;21.15;;;19.40;99.90;;;;;;5031185;28;20026;-74
2021/07/10 05:32:15;;;;;;;28.35;21.63;;;19.40;99.90;;;;;;5033226;28;20497;-76
2021/07/10 05:34:41;;;;;;;28.40;20.63;;;19.40;99.90;;;;;;5025869;28;20184;-76
2021/07/10 05:37:07;;;;;;;36.35;25.50;;;19.50;99.90;;;;;;5032825;28;20092;-74
2021/07/10 05:39:33;;;;;;;33.53;23.45;;;19.60;99.90;;;;;;5032709;28;20120;-76
2021/07/10 05:41:59;;;;;;;33.55;24.52;;;19.60;99.90;;;;;;5035369;28;20129;-76
2021/07/10 05:44:25;;;;;;;46.00;31.42;;;19.70;99.90;;;;;;5031380;28;20104;-76
2021/07/10 05:46:51;;;;;;;50.42;30.98;;;19.70;99.90;;;;;;5030622;28;20155;-76
2021/07/10 05:49:16;;;;;;;58.53;36.10;;;19.70;99.90;;;;;;5028147;28;20108;-75
2021/07/10 05:51:42;;;;;;;54.97;34.10;;;19.70;99.90;;;;;;5028984;28;20025;-76
2021/07/10 05:54:09;;;;;;;48.97;32.17;;;19.80;99.90;;;;;;5029260;28;20120;-76
2021/07/10 05:56:34;;;;;;;59.40;36.58;;;19.80;99.90;;;;;;5027329;28;20033;-76
2021/07/10 05:59:00;;;;;;;58.33;37.03;;;19.90;99.90;;;;;;5030704;28;20028;-76
2021/07/10 06:01:26;;;;;;;58.60;37.42;;;19.90;99.90;;;;;;5033205;28;20037;-76
2021/07/10 06:03:51;;;;;;;54.38;35.90;;;20.00;99.90;;;;;;5029068;28;20044;-76
2021/07/10 06:06:17;;;;;;;64.25;37.28;;;19.90;99.90;;;;;;5025236;28;20035;-77
2021/07/10 06:08:43;;;;;;;63.22;39.55;;;20.00;99.90;;;;;;5031630;28;20477;-76
2021/07/10 06:11:09;;;;;;;62.22;38.60;;;20.00;99.90;;;;;;5027489;28;20057;-76
2021/07/10 06:13:34;;;;;;;62.28;39.67;;;20.10;99.90;;;;;;5027882;28;20029;-75
2021/07/10 06:16:00;;;;;;;68.43;40.35;;;20.00;99.90;;;;;;5030919;28;20022;-76
2021/07/10 06:18:26;;;;;;;62.83;39.10;;;20.10;99.90;;;;;;5031295;28;20029;-76
2021/07/10 06:20:51;;;;;;;55.95;34.38;;;20.10;99.90;;;;;;5029680;28;20041;-75
2021/07/10 06:23:18;;;;;;;62.33;39.95;;;20.10;99.90;;;;;;5030730;28;20101;-76
2021/07/10 06:25:44;;;;;;;56.22;35.70;;;20.20;99.90;;;;;;5033093;28;20052;-76
2021/07/10 06:28:10;;;;;;;58.75;33.75;;;20.30;99.90;;;;;;5035505;28;20028;-76
2021/07/10 06:30:37;;;;;;;61.42;41.42;;;20.30;99.90;;;;;;5026025;28;20029;-76
2021/07/10 06:33:03;;;;;;;64.28;39.60;;;20.40;99.90;;;;;;5031049;28;20021;-76
2021/07/10 06:35:29;;;;;;;62.53;39.90;;;20.40;99.90;;;;;;5027996;28;20037;-76
2021/07/10 06:37:55;;;;;;;65.75;39.13;;;20.40;99.90;;;;;;5029065;28;20029;-76
2021/07/10 06:40:21;;;;;;;59.15;38.03;;;20.40;99.90;;;;;;5031760;28;20032;-74
2021/07/10 06:42:47;;;;;;;66.55;41.05;;;20.50;99.90;;;;;;5032909;28;20358;-75
2021/07/10 06:45:16;;;;;;;59.33;35.10;;;20.50;99.90;;;;;;5026623;28;20064;-76
2021/07/10 06:47:42;;;;;;;60.13;38.42;;;20.60;99.90;;;;;;5032170;28;20021;-76
2021/07/10 06:50:10;;;;;;;57.00;35.70;;;20.60;99.90;;;;;;5027273;28;20482;-75
2021/07/10 06:52:36;;;;;;;51.22;33.33;;;20.60;99.90;;;;;;5033775;28;20461;-75
2021/07/10 06:55:04;;;;;;;50.15;33.00;;;20.70;99.90;;;;;;5027235;28;20578;-75
2021/07/10 06:57:30;;;;;;;52.40;33.72;;;20.80;99.90;;;;;;5028971;28;20084;-72
2021/07/10 06:59:56;;;;;;;54.80;32.45;;;20.90;99.90;;;;;;5033732;28;20037;-72
2021/07/10 07:02:21;;;;;;;56.00;32.33;;;20.80;99.90;;;;;;5032796;28;20116;-71
2021/07/10 07:04:47;;;;;;;48.13;33.00;;;20.90;99.90;;;;;;5030337;28;20028;-71
2021/07/10 07:07:12;;;;;;;53.33;33.25;;;21.00;99.90;;;;;;5033328;28;20053;-71
2021/07/10 07:09:38;;;;;;;51.28;32.25;;;21.00;99.90;;;;;;5036955;28;20104;-72
2021/07/10 07:12:04;;;;;;;49.30;31.92;;;21.10;99.90;;;;;;5036231;28;20029;-72
2021/07/10 07:14:30;;;;;;;51.83;31.50;;;21.10;99.90;;;;;;5050851;28;20032;-71
2021/07/10 07:16:58;;;;;;;48.42;30.00;;;21.20;99.90;;;;;;5035501;28;20397;-72
2021/07/10 07:19:25;;;;;;;51.83;33.00;;;21.20;99.90;;;;;;5032809;28;20113;-72
2021/07/10 07:21:51;;;;;;;49.83;31.83;;;21.10;99.90;;;;;;5038840;28;20033;-73
2021/07/10 07:24:17;;;;;;;45.55;29.15;;;21.10;99.90;;;;;;5029365;28;20156;-72
2021/07/10 07:26:43;;;;;;;46.70;28.38;;;21.10;99.90;;;;;;5037202;28;20482;-71
2021/07/10 07:29:08;;;;;;;40.63;27.00;;;21.10;99.90;;;;;;5036011;28;20018;-72
2021/07/10 07:31:34;;;;;;;37.35;24.05;;;21.30;99.90;;;;;;5030878;28;20481;-71
2021/07/10 07:34:00;;;;;;;37.92;26.52;;;21.50;99.90;;;;;;5036855;28;20056;-71
2021/07/10 07:36:25;;;;;;;38.00;25.50;;;21.60;99.90;;;;;;5033008;28;20396;-70
2021/07/10 07:38:51;;;;;;;52.15;29.45;;;21.60;99.90;;;;;;5029248;28;20071;-71
2021/07/10 07:41:18;;;;;;;42.00;27.38;;;21.60;99.90;;;;;;5036147;28;20030;-71
2021/07/10 07:43:44;;;;;;;41.13;26.50;;;21.70;99.90;;;;;;5035706;28;20417;-71
2021/07/10 07:46:12;;;;;;;42.25;27.85;;;21.70;99.90;;;;;;5031304;28;20083;-71
2021/07/10 07:48:37;;;;;;;46.83;30.33;;;21.80;99.90;;;;;;5032870;28;20026;-73
2021/07/10 07:51:03;;;;;;;47.63;31.75;;;21.80;99.90;;;;;;5035317;28;20108;-72
2021/07/10 07:53:29;;;;;;;46.13;29.52;;;21.70;99.90;;;;;;5030213;28;20029;-71
2021/07/10 07:55:55;;;;;;;41.83;28.60;;;21.60;99.90;;;;;;5035815;28;20026;-71
2021/07/10 07:58:21;;;;;;;49.38;31.02;;;21.70;99.90;;;;;;5035649;28;20049;-71
2021/07/10 08:00:47;;;;;;;47.92;31.70;;;21.60;99.90;;;;;;5034031;28;20470;-71
2021/07/10 08:03:12;;;;;;;44.65;29.45;;;21.80;99.90;;;;;;5036065;28;20053;-71
2021/07/10 08:05:38;;;;;;;43.67;26.48;;;21.90;99.90;;;;;;5034602;28;20420;-72
2021/07/10 08:08:04;;;;;;;42.13;28.35;;;21.80;99.90;;;;;;5029258;28;20416;-72
2021/07/10 08:10:30;;;;;;;38.42;25.15;;;21.90;99.90;;;;;;5035668;28;20028;-71
2021/07/10 08:12:56;;;;;;;39.92;26.17;;;21.90;99.90;;;;;;5032927;28;20164;-71
2021/07/10 08:15:23;;;;;;;35.90;24.50;;;21.70;99.90;;;;;;5034489;28;20397;-72
2021/07/10 08:17:50;;;;;;;35.30;23.90;;;21.70;99.90;;;;;;5027543;28;20475;-72
2021/07/10 08:20:17;;;;;;;38.75;26.15;;;21.70;99.90;;;;;;5032792;28;20500;-73
2021/07/10 08:22:45;;;;;;;38.55;24.50;;;21.70;99.90;;;;;;5009200;28;20101;-73
2021/07/10 08:25:12;;;;;;;35.42;23.15;;;21.80;99.90;;;;;;5035815;28;20393;-71
2021/07/10 08:27:38;;;;;;;43.70;28.92;;;21.90;99.90;;;;;;5032815;28;20081;-72
2021/07/10 08:30:06;;;;;;;45.33;30.23;;;21.90;99.90;;;;;;5034760;28;20033;-72
2021/07/10 08:32:31;;;;;;;46.35;28.33;;;21.90;99.90;;;;;;5024923;28;20500;-72
2021/07/10 08:34:57;;;;;;;44.17;28.90;;;21.90;99.90;;;;;;5033643;28;20022;-72
2021/07/10 08:37:23;;;;;;;42.30;28.30;;;21.90;99.90;;;;;;5035810;28;20021;-72
2021/07/10 08:39:49;;;;;;;42.08;27.08;;;21.80;99.90;;;;;;5030706;28;20057;-72
2021/07/10 08:42:14;;;;;;;41.05;27.70;;;21.90;99.90;;;;;;5034995;28;20377;-73
2021/07/10 08:44:41;;;;;;;43.25;27.02;;;21.80;99.90;;;;;;5031145;28;20051;-72
2021/07/10 08:47:13;;;;;;;39.55;26.52;;;21.70;99.90;;;;;;5037147;28;20013;-73
2021/07/10 08:49:40;;;;;;;36.15;24.15;;;21.60;99.90;;;;;;5030421;28;20033;-73
2021/07/10 08:52:06;;;;;;;36.83;24.80;;;21.70;99.90;;;;;;5031235;28;20021;-73
2021/07/10 08:54:32;;;;;;;37.85;22.88;;;21.70;99.90;;;;;;5035133;28;20041;-72
2021/07/10 08:56:58;;;;;;;32.15;20.63;;;21.90;99.90;;;;;;5031531;28;20076;-72
2021/07/10 08:59:24;;;;;;;35.47;23.77;;;22.00;99.90;;;;;;5032904;28;20026;-72
2021/07/10 09:01:53;;;;;;;34.88;23.05;;;22.00;99.90;;;;;;5033618;28;20050;-72
2021/07/10 09:04:20;;;;;;;36.20;24.45;;;22.00;99.90;;;;;;5034238;28;20075;-73
2021/07/10 09:06:46;;;;;;;31.45;21.30;;;22.10;99.90;;;;;;5030356;28;20057;-72
2021/07/10 09:09:11;;;;;;;34.28;23.88;;;22.20;99.90;;;;;;5029547;28;20053;-72
2021/07/10 09:11:39;;;;;;;36.85;23.67;;;22.10;99.90;;;;;;5037023;28;20028;-72
2021/07/10 09:14:05;;;;;;;39.90;26.60;;;22.00;99.90;;;;;;5031824;28;20028;-72
2021/07/10 09:16:32;;;;;;;35.47;24.33;;;22.00;99.90;;;;;;5028677;28;20402;-72
2021/07/10 09:19:06;;;;;;;41.33;27.02;;;22.20;99.90;;;;;;5028313;28;20041;-73
2021/07/10 09:21:44;;;;;;;40.03;26.77;;;22.20;99.90;;;;;;5030629;28;20140;-73
2021/07/10 09:24:16;;;;;;;37.97;25.25;;;22.40;99.90;;;;;;5026975;28;20025;-72
2021/07/10 09:26:43;;;;;;;33.50;23.83;;;22.50;99.90;;;;;;5031667;28;20020;-72
2021/07/10 09:29:14;;;;;;;42.22;26.70;;;22.50;99.90;;;;;;5033331;28;20032;-72
2021/07/10 09:31:47;;;;;;;37.45;26.30;;;22.50;99.90;;;;;;5031931;28;20021;-72
2021/07/10 09:34:19;;;;;;;35.63;25.23;;;22.70;99.90;;;;;;5032868;28;20033;-73
2021/07/10 09:36:57;;;;;;;37.35;24.10;;;22.80;99.90;;;;;;5028332;28;20014;-72
2021/07/10 09:39:25;;;;;;;30.23;22.58;;;23.00;99.90;;;;;;5029691;28;20072;-72
2021/07/10 09:41:52;;;;;;;32.00;22.00;;;22.90;99.90;;;;;;5033752;28;20076;-72
2021/07/10 09:44:17;;;;;;;29.50;22.25;;;23.10;99.90;;;;;;5032472;28;20363;-72
2021/07/10 09:46:44;;;;;;;35.55;25.02;;;23.40;99.90;;;;;;5028337;28;20024;-72
2021/07/10 09:49:28;;;;;;;26.85;20.02;;;23.60;99.90;;;;;;5030773;28;20485;-72
2021/07/10 09:52:18;;;;;;;27.65;18.98;;;23.90;99.90;;;;;;5029768;28;20034;-72
2021/07/10 09:54:46;;;;;;;24.73;17.08;;;24.20;99.90;;;;;;5029583;28;20054;-73
2021/07/10 09:57:17;;;;;;;21.63;15.68;;;24.10;99.90;;;;;;5026940;28;20109;-72
2021/07/10 09:59:51;;;;;;;20.83;15.55;;;24.30;99.90;;;;;;5030323;28;20014;-72
2021/07/10 10:02:22;;;;;;;22.52;15.60;;;24.10;99.90;;;;;;5029237;28;20378;-72
2021/07/10 10:04:48;;;;;;;20.15;11.27;;;23.90;99.90;;;;;;5025891;28;20461;-72
2021/07/10 10:07:17;;;;;;;16.60;11.60;;;23.50;99.90;;;;;;5026467;28;20049;-72
2021/07/10 10:09:44;;;;;;;42.88;13.20;;;23.60;99.90;;;;;;5031227;28;20436;-72
2021/07/10 10:12:18;;;;;;;15.93;12.27;;;23.90;99.90;;;;;;5026028;28;20025;-72
2021/07/10 10:14:46;;;;;;;15.50;11.43;;;24.10;99.90;;;;;;5029049;28;20173;-71
2021/07/10 10:17:14;;;;;;;16.70;11.23;;;24.30;99.90;;;;;;5030986;28;20438;-70
2021/07/10 10:19:42;;;;;;;16.38;11.20;;;24.20;99.90;;;;;;5032050;28;20037;-70
2021/07/10 10:22:09;;;;;;;15.85;11.55;;;24.20;99.90;;;;;;5031056;28;20017;-70
2021/07/10 10:24:36;;;;;;;15.63;11.73;;;24.40;99.90;;;;;;5026329;28;20463;-69
2021/07/10 10:27:04;;;;;;;17.75;12.30;;;24.50;99.90;;;;;;5033361;28;20027;-71
2021/07/10 10:29:33;;;;;;;11.10;9.05;;;24.50;99.90;;;;;;5032655;28;20132;-71
2021/07/10 10:31:58;;;;;;;11.65;9.10;;;24.60;99.90;;;;;;5030436;28;20020;-71
2021/07/10 10:34:25;;;;;;;8.45;7.55;;;24.60;99.90;;;;;;5029822;28;20034;-72
2021/07/10 10:36:53;;;;;;;8.77;7.50;;;24.50;99.90;;;;;;5026438;28;20030;-72
2021/07/10 10:39:22;;;;;;;10.88;7.60;;;24.60;99.90;;;;;;5030121;28;20025;-71
2021/07/10 10:41:52;;;;;;;11.05;7.18;;;24.30;99.90;;;;;;5026144;28;20041;-70
2021/07/10 10:44:19;;;;;;;10.57;8.27;;;24.60;99.90;;;;;;5028297;28;20028;-71
2021/07/10 10:46:55;;;;;;;9.32;6.57;;;25.10;99.90;;;;;;5031645;28;20083;-70
2021/07/10 10:49:44;;;;;;;32.80;9.63;;;25.20;99.90;;;;;;5030835;28;20029;-70
2021/07/10 10:52:34;;;;;;;9.60;6.85;;;25.10;99.90;;;;;;5021668;28;20021;-71
2021/07/10 10:55:29;;;;;;;7.45;6.65;;;25.60;99.90;;;;;;5027282;28;20466;-74
2021/07/10 10:58:22;;;;;;;7.50;6.55;;;26.00;99.90;;;;;;5026961;28;20049;-71
2021/07/10 11:01:00;;;;;;;9.10;6.68;;;26.10;99.90;;;;;;5027446;28;20429;-75
2021/07/10 11:03:38;;;;;;;10.63;6.85;;;25.60;99.90;;;;;;5014219;28;20516;-74
2021/07/10 11:06:05;;;;;;;8.52;7.13;;;25.60;99.90;;;;;;5026012;28;20113;-72
2021/07/10 11:08:53;;;;;;;12.55;8.70;;;25.40;99.90;;;;;;5031778;28;20020;-72
2021/07/10 11:11:27;;;;;;;8.73;6.53;;;25.60;99.90;;;;;;5026908;28;20437;-70
2021/07/10 11:14:02;;;;;;;7.15;5.40;;;25.40;99.90;;;;;;5031399;28;20100;-71
2021/07/10 11:16:28;;;;;;;7.53;6.07;;;25.30;99.90;;;;;;5027181;28;20056;-71
2021/07/10 11:19:04;;;;;;;10.38;5.93;;;25.30;99.90;;;;;;5023853;28;20461;-70
2021/07/10 11:21:34;;;;;;;8.57;7.22;;;25.10;99.90;;;;;;5027486;28;20200;-70
2021/07/10 11:24:20;;;;;;;9.20;6.00;;;24.70;99.90;;;;;;5022363;28;20024;-70
2021/07/10 11:26:58;;;;;;;8.05;6.63;;;24.60;99.90;;;;;;5027441;28;20025;-70
2021/07/10 11:29:28;;;;;;;8.43;6.47;;;24.70;99.90;;;;;;5026536;28;20026;-71
2021/07/10 11:32:14;;;;;;;9.15;6.35;;;24.80;99.90;;;;;;5028614;28;20101;-71
2021/07/10 11:34:50;;;;;;;7.35;6.00;;;24.90;99.90;;;;;;5022601;28;20022;-69
2021/07/10 11:37:24;;;;;;;6.90;4.97;;;24.70;99.90;;;;;;5031142;28;20413;-68
2021/07/10 11:39:53;;;;;;;10.25;7.07;;;24.50;99.90;;;;;;5028564;28;20033;-68
2021/07/10 11:42:20;;;;;;;8.80;7.03;;;24.50;99.90;;;;;;5026338;28;20040;-68
2021/07/10 11:44:48;;;;;;;7.60;5.65;;;24.40;99.90;;;;;;5028119;28;20057;-68
2021/07/10 11:47:31;;;;;;;7.45;5.60;;;24.50;99.90;;;;;;5030691;28;20520;-68
2021/07/10 11:49:58;;;;;;;6.68;5.60;;;24.50;99.90;;;;;;5028941;28;20024;-69
2021/07/10 11:52:24;;;;;;;5.88;5.13;;;24.40;99.90;;;;;;5028006;28;20061;-69
2021/07/10 11:54:56;;;;;;;6.28;5.68;;;24.20;99.90;;;;;;5028808;28;20101;-70
2021/07/10 11:57:25;;;;;;;7.88;5.68;;;24.20;99.90;;;;;;5035026;28;20087;-71
2021/07/10 11:59:51;;;;;;;6.63;5.70;;;24.20;99.90;;;;;;5034600;28;20030;-74
2021/07/10 12:02:43;;;;;;;7.15;5.90;;;24.30;99.90;;;;;;5034322;28;20021;-73
2021/07/10 12:05:17;;;;;;;6.53;5.63;;;24.30;99.90;;;;;;5024588;28;20046;-76
2021/07/10 12:07:45;;;;;;;9.13;6.15;;;24.20;99.90;;;;;;5031860;28;20100;-76
2021/07/10 12:10:19;;;;;;;5.90;5.38;;;24.40;99.90;;;;;;5031568;28;20369;-76
2021/07/10 12:12:50;;;;;;;6.43;5.72;;;24.30;99.90;;;;;;5035432;28;20021;-76
2021/07/10 12:15:19;;;;;;;9.57;6.60;;;24.30;99.90;;;;;;5041680;28;20021;-74
2021/07/10 12:17:47;;;;;;;6.18;5.68;;;24.30;99.90;;;;;;5031906;28;20048;-72
2021/07/10 12:20:14;;;;;;;9.60;6.90;;;24.30;99.90;;;;;;5033116;28;20032;-73
2021/07/10 12:23:05;;;;;;;7.68;6.88;;;24.40;99.90;;;;;;5035261;28;20021;-72
2021/07/10 12:25:45;;;;;;;8.90;7.30;;;24.50;99.90;;;;;;5025536;28;20041;-73
2021/07/10 12:28:11;;;;;;;9.23;7.45;;;24.60;99.90;;;;;;5031233;28;20041;-73
2021/07/10 12:30:46;;;;;;;8.15;6.05;;;24.50;99.90;;;;;;5033581;28;20017;-71
2021/07/10 12:33:29;;;;;;;9.25;7.10;;;24.60;99.90;;;;;;5032489;28;20577;-71